Time;durP1;ratioP1;P1;durP2;ratioP2;P2;SDS_P1;SDS_P2;PMS_P1;PMS_P2;Temp;Humidity;BMP_temperature;BMP_pressure;BME280_temperature;BME280_humidity;BME280_pressure;Samples;Min_cycle;Max_cycle;Signal;HPM_P1;HPM_P2
2024/03/25 00:04:43;;;;;;;;;;;;;;;20.21;34.56;94825.66;10458813;28;2896;-68
2024/03/25 00:09:44;;;;;;;;;;;;;;;20.19;34.34;94827.81;10461651;28;2652;-70
2024/03/25 00:14:45;;;;;;;;;;;;;;;20.18;34.22;94825.41;10459746;28;2812;-69
2024/03/25 00:19:50;;;;;;;;;;;;;;;20.16;34.00;94822.31;10456144;28;2704;-68
2024/03/25 00:24:54;;;;;;;;;;;;;;;20.15;34.28;94831.28;10462751;28;2826;-69
2024/03/25 00:29:54;;;;;;;;;;;;;;;20.13;34.63;94828.94;10463008;28;2779;-69
2024/03/25 00:34:55;;;;;;;;;;;;;;;20.11;34.52;94831.06;10465555;28;2757;-68
2024/03/25 00:39:55;;;;;;;;;;;;;;;20.09;34.22;94816.66;10467449;28;2709;-69
2024/03/25 00:44:58;;;;;;;;;;;;;;;20.07;34.26;94824.06;10468295;28;2809;-69
2024/03/25 00:49:58;;;;;;;;;;;;;;;20.06;34.49;94825.13;10468455;28;2765;-69
2024/03/25 00:55:01;;;;;;;;;;;;;;;20.03;34.68;94815.97;10464464;28;2799;-68
2024/03/25 01:00:02;;;;;;;;;;;;;;;20.02;34.33;94816.25;10466681;28;2834;-69
2024/03/25 01:05:02;;;;;;;;;;;;;;;20.00;34.46;94803.41;10471105;28;2834;-69
2024/03/25 01:10:02;;;;;;;;;;;;;;;20.00;34.63;94805.25;10475869;28;2806;-68
2024/03/25 01:15:03;;;;;;;;;;;;;;;19.98;34.59;94799.50;10445404;28;2642;-69
2024/03/25 01:20:08;;;;;;;;;;;;;;;19.97;34.61;94797.97;10460123;28;2766;-70
2024/03/25 01:25:09;;;;;;;;;;;;;;;19.95;34.38;94805.34;10464603;28;2688;-69
2024/03/25 01:30:10;;;;;;;;;;;;;;;19.93;34.59;94807.47;10465510;28;2732;-69
2024/03/25 01:35:11;;;;;;;;;;;;;;;19.92;34.56;94805.94;10463559;28;2575;-69
2024/03/25 01:40:11;;;;;;;;;;;;;;;19.90;34.54;94797.56;10463336;28;2771;-70
2024/03/25 01:45:12;;;;;;;;;;;;;;;19.87;34.46;94808.66;10463413;28;2802;-70
2024/03/25 01:50:12;;;;;;;;;;;;;;;19.86;34.54;94802.63;10466434;28;2823;-69
2024/03/25 01:55:14;;;;;;;;;;;;;;;19.85;34.55;94808.16;10463312;28;2856;-70
2024/03/25 02:00:16;;;;;;;;;;;;;;;19.84;34.71;94806.63;10481468;28;2934;-70
2024/03/25 02:05:16;;;;;;;;;;;;;;;19.83;34.66;94802.41;10461234;28;2858;-69
2024/03/25 02:10:17;;;;;;;;;;;;;;;19.81;34.93;94807.19;10462323;28;2784;-70
2024/03/25 02:15:17;;;;;;;;;;;;;;;19.80;34.72;94808.28;10460850;28;2346;-69
2024/03/25 02:20:18;;;;;;;;;;;;;;;19.78;34.90;94807.78;10459815;28;2762;-69
2024/03/25 02:25:20;;;;;;;;;;;;;;;19.76;34.71;94802.03;10463094;28;2755;-69
2024/03/25 02:30:20;;;;;;;;;;;;;;;19.74;34.97;94804.19;10465480;28;2805;-70
2024/03/25 02:35:21;;;;;;;;;;;;;;;19.72;34.92;94799.19;10463380;28;2796;-70
2024/03/25 02:40:22;;;;;;;;;;;;;;;19.72;35.02;94803.69;10461888;28;2818;-70
2024/03/25 02:45:23;;;;;;;;;;;;;;;19.70;35.15;94800.56;10479612;28;2767;-69
2024/03/25 02:50:23;;;;;;;;;;;;;;;19.69;35.18;94796.38;10460515;28;2840;-70
2024/03/25 02:55:24;;;;;;;;;;;;;;;19.67;35.09;94803.75;10465624;28;2690;-70
2024/03/25 03:00:24;;;;;;;;;;;;;;;19.65;35.12;94806.69;10461960;28;2882;-70
2024/03/25 03:05:24;;;;;;;;;;;;;;;19.64;35.40;94806.97;10461345;28;2945;-70
2024/03/25 03:10:25;;;;;;;;;;;;;;;19.63;35.21;94810.66;10458179;28;2751;-70
2024/03/25 03:15:25;;;;;;;;;;;;;;;19.61;35.21;94821.47;10455462;28;2862;-70
2024/03/25 03:20:26;;;;;;;;;;;;;;;19.60;35.27;94819.91;10457494;28;2843;-70
2024/03/25 03:25:26;;;;;;;;;;;;;;;19.59;35.41;94822.84;10461342;28;2803;-69
2024/03/25 03:30:26;;;;;;;;;;;;;;;19.57;35.41;94822.34;10460677;28;2756;-70
2024/03/25 03:35:27;;;;;;;;;;;;;;;19.56;35.23;94815.53;10473608;28;2839;-70
2024/03/25 03:40:27;;;;;;;;;;;;;;;19.54;35.38;94830.81;10461836;28;2637;-70
2024/03/25 03:45:32;;;;;;;;;;;;;;;19.52;35.49;94822.41;10478927;28;2745;-70
2024/03/25 03:50:32;;;;;;;;;;;;;;;19.49;35.64;94824.56;10457954;28;2656;-71
2024/03/25 03:55:32;;;;;;;;;;;;;;;19.49;35.62;94821.16;10473879;28;2719;-71
2024/03/25 04:00:33;;;;;;;;;;;;;;;19.47;35.68;94823.31;10459133;28;2633;-70
2024/03/25 04:05:33;;;;;;;;;;;;;;;19.45;35.30;94826.19;10468952;28;2715;-70
2024/03/25 04:10:34;;;;;;;;;;;;;;;19.43;35.53;94824.94;10466475;28;2728;-70
2024/03/25 04:15:34;;;;;;;;;;;;;;;19.41;35.38;94830.47;10465314;28;2713;-70
2024/03/25 04:20:38;;;;;;;;;;;;;;;19.40;35.72;94834.19;10470967;28;2769;-71
2024/03/25 04:25:39;;;;;;;;;;;;;;;19.39;35.46;94840.50;10496869;28;2888;-70
2024/03/25 04:30:39;;;;;;;;;;;;;;;19.37;35.65;94837.38;10467596;28;2794;-70
2024/03/25 04:35:39;;;;;;;;;;;;;;;19.36;35.81;94835.81;10451636;28;2978;-70
2024/03/25 04:40:40;;;;;;;;;;;;;;;19.34;35.69;94843.22;10470017;28;2863;-71
2024/03/25 04:45:40;;;;;;;;;;;;;;;19.33;35.96;94849.53;10467913;28;2678;-72
2024/03/25 04:50:40;;;;;;;;;;;;;;;19.33;35.88;94849.53;10471454;28;2787;-70
2024/03/25 04:55:40;;;;;;;;;;;;;;;19.31;35.87;94843.75;10501035;28;2804;-71
2024/03/25 05:00:41;;;;;;;;;;;;;;;19.30;35.97;94841.41;10462336;28;2551;-70
2024/03/25 05:05:41;;;;;;;;;;;;;;;19.27;35.60;94844.59;10465570;28;2721;-72
2024/03/25 05:10:41;;;;;;;;;;;;;;;19.27;34.85;94849.84;10499530;28;2678;-70
2024/03/25 05:15:49;;;;;;;;;;;;;;;19.29;34.71;94856.38;10471403;28;2792;-70
2024/03/25 05:20:49;;;;;;;;;;;;;;;19.33;34.95;94860.03;10479971;28;2789;-71
2024/03/25 05:25:49;;;;;;;;;;;;;;;19.36;35.53;94867.34;10465073;28;2615;-70
2024/03/25 05:30:51;;;;;;;;;;;;;;;19.42;34.83;94862.78;10469756;28;2827;-70
2024/03/25 05:35:51;;;;;;;;;;;;;;;19.48;35.12;94867.69;10463329;28;2847;-70
2024/03/25 05:40:51;;;;;;;;;;;;;;;19.56;34.86;94876.00;10463071;28;2821;-70
2024/03/25 05:45:55;;;;;;;;;;;;;;;19.58;34.95;94879.13;10464571;28;2791;-69
2024/03/25 05:51:02;;;;;;;;;;;;;;;19.60;35.88;94884.88;10463963;28;2753;-69
2024/03/25 05:56:02;;;;;;;;;;;;;;;19.65;36.59;94882.16;10465074;28;2923;-69
2024/03/25 06:01:04;;;;;;;;;;;;;;;19.68;36.46;94884.97;10467059;28;2751;-69
2024/03/25 06:06:05;;;;;;;;;;;;;;;19.71;36.62;94894.94;10463484;28;2877;-70
2024/03/25 06:11:06;;;;;;;;;;;;;;;19.74;36.77;94883.81;10441523;28;2846;-70
2024/03/25 06:16:11;;;;;;;;;;;;;;;19.81;36.79;94894.75;10477470;28;2808;-72
2024/03/25 06:21:13;;;;;;;;;;;;;;;19.83;36.50;94903.13;10463011;28;2963;-70
2024/03/25 06:26:13;;;;;;;;;;;;;;;19.87;36.98;94905.97;10460882;28;2775;-70
2024/03/25 06:36:33;;;;;;;;;;;;;;;19.95;36.32;94910.56;10456869;28;2862;-62
2024/03/25 06:41:33;;;;;;;;;;;;;;;19.94;35.31;94909.00;10461587;28;2573;-62
2024/03/25 06:46:34;;;;;;;;;;;;;;;19.96;35.54;94912.13;10466076;28;2772;-66
2024/03/25 06:51:34;;;;;;;;;;;;;;;19.97;34.50;94919.72;10461510;28;2825;-67
2024/03/25 06:56:34;;;;;;;;;;;;;;;20.03;34.78;94912.53;10460042;28;2729;-66
2024/03/25 07:01:34;;;;;;;;;;;;;;;20.05;35.11;94913.03;10459340;28;2520;-68
2024/03/25 07:06:35;;;;;;;;;;;;;;;20.06;34.56;94918.00;10488554;28;2748;-67
2024/03/25 07:11:35;;;;;;;;;;;;;;;20.10;34.81;94915.56;10455266;28;2752;-69
2024/03/25 07:16:35;;;;;;;;;;;;;;;20.10;34.48;94905.03;10461691;28;2696;-67
2024/03/25 07:21:35;;;;;;;;;;;;;;;20.13;34.93;94904.47;10459092;28;2721;-69
2024/03/25 07:26:36;;;;;;;;;;;;;;;20.13;35.07;94907.09;10457350;28;2797;-69
2024/03/25 07:31:36;;;;;;;;;;;;;;;20.16;34.54;94912.56;10470451;28;2833;-69
2024/03/25 07:36:37;;;;;;;;;;;;;;;20.18;34.59;94905.16;10453652;28;2756;-70
2024/03/25 07:41:37;;;;;;;;;;;;;;;20.21;35.22;94904.63;10451634;28;2732;-69
2024/03/25 07:46:37;;;;;;;;;;;;;;;20.22;35.06;94911.41;10457383;28;2692;-70
2024/03/25 07:51:39;;;;;;;;;;;;;;;20.28;36.03;94920.78;10451489;28;3040;-69
2024/03/25 07:56:39;;;;;;;;;;;;;;;20.26;36.30;94911.59;10452986;28;2844;-70
2024/03/25 08:01:40;;;;;;;;;;;;;;;20.22;36.87;94898.25;10451808;28;2822;-69
2024/03/25 08:06:40;;;;;;;;;;;;;;;20.20;37.27;94907.50;10460627;28;2739;-69
2024/03/25 08:11:40;;;;;;;;;;;;;;;20.18;37.77;94902.53;10429303;28;2698;-68
2024/03/25 08:16:40;;;;;;;;;;;;;;;20.15;37.25;94902.31;10454514;28;2719;-68
2024/03/25 08:21:41;;;;;;;;;;;;;;;20.21;37.63;94901.97;10447250;28;2574;-70
2024/03/25 08:26:41;;;;;;;;;;;;;;;20.21;37.87;94898.56;10435698;28;2783;-68
2024/03/25 08:31:41;;;;;;;;;;;;;;;20.22;36.32;94911.41;10449594;28;2987;-68
2024/03/25 08:36:41;;;;;;;;;;;;;;;20.21;35.83;94907.25;10451884;28;2857;-69
2024/03/25 08:41:42;;;;;;;;;;;;;;;20.25;35.85;94899.53;10451693;28;2793;-67
2024/03/25 08:46:42;;;;;;;;;;;;;;;20.28;35.87;94901.56;10455513;28;2638;-67
2024/03/25 08:51:42;;;;;;;;;;;;;;;20.29;35.83;94897.88;10465091;28;2536;-69
2024/03/25 08:56:42;;;;;;;;;;;;;;;20.28;36.08;94901.56;10465807;28;2668;-69
2024/03/25 09:01:43;;;;;;;;;;;;;;;20.28;35.79;94888.41;10465165;28;2848;-69
2024/03/25 09:06:43;;;;;;;;;;;;;;;20.23;36.38;94881.41;10463882;28;2836;-69
2024/03/25 09:11:43;;;;;;;;;;;;;;;20.33;37.75;94885.69;10462308;28;2814;-67
2024/03/25 09:16:43;;;;;;;;;;;;;;;20.29;37.40;94874.19;10462084;28;2576;-67
2024/03/25 09:21:44;;;;;;;;;;;;;;;20.30;37.11;94874.97;10460983;28;2936;-66
2024/03/25 09:26:44;;;;;;;;;;;;;;;20.33;36.55;94872.53;10459660;28;2864;-67
2024/03/25 09:31:44;;;;;;;;;;;;;;;20.32;37.06;94857.03;10464043;28;2772;-66
2024/03/25 09:36:44;;;;;;;;;;;;;;;20.35;36.22;94857.22;10460044;28;2789;-66
2024/03/25 09:41:45;;;;;;;;;;;;;;;20.36;36.20;94864.03;10460490;28;2723;-67
2024/03/25 09:46:45;;;;;;;;;;;;;;;20.47;38.32;94851.47;10443623;28;2945;-66
2024/03/25 09:51:46;;;;;;;;;;;;;;;20.47;40.13;94847.00;10465566;28;2775;-66
2024/03/25 09:56:47;;;;;;;;;;;;;;;20.43;37.66;94855.75;10466432;28;2841;-66
2024/03/25 10:01:47;;;;;;;;;;;;;;;20.53;38.51;94847.66;10464764;28;2491;-66
2024/03/25 10:06:48;;;;;;;;;;;;;;;20.53;39.62;94837.91;10494115;28;2557;-66
2024/03/25 10:11:48;;;;;;;;;;;;;;;20.49;39.58;94828.25;10462291;28;2587;-69
2024/03/25 10:16:51;;;;;;;;;;;;;;;20.48;39.15;94816.19;10467208;28;2600;-68
2024/03/25 10:22:00;;;;;;;;;;;;;;;20.46;38.25;94815.69;10467635;28;2563;-68
2024/03/25 10:27:01;;;;;;;;;;;;;;;20.47;38.43;94811.97;10463729;28;2549;-68
2024/03/25 10:32:04;;;;;;;;;;;;;;;20.50;40.04;94799.03;10464974;28;2650;-67
2024/03/25 10:37:04;;;;;;;;;;;;;;;20.49;38.80;94800.09;10495471;28;2587;-68
2024/03/25 10:42:09;;;;;;;;;;;;;;;20.51;40.45;94805.84;10459422;28;2457;-67
2024/03/25 10:47:10;;;;;;;;;;;;;;;20.51;41.07;94790.03;10432274;28;2659;-68
2024/03/25 10:52:11;;;;;;;;;;;;;;;20.52;39.96;94782.94;10469270;28;2390;-67
2024/03/25 10:57:11;;;;;;;;;;;;;;;20.52;39.40;94773.19;10448710;28;2473;-67
2024/03/25 11:02:11;;;;;;;;;;;;;;;20.53;39.05;94768.66;10462827;28;2469;-67
2024/03/25 11:07:12;;;;;;;;;;;;;;;20.53;38.24;94758.94;10461895;28;2720;-68
2024/03/25 11:12:13;;;;;;;;;;;;;;;20.51;39.60;94763.72;10462248;28;2617;-67
2024/03/25 11:17:16;;;;;;;;;;;;;;;20.54;39.25;94746.56;10461669;28;2599;-68
2024/03/25 11:22:16;;;;;;;;;;;;;;;20.56;39.17;94739.13;10458274;28;2504;-68
2024/03/25 11:27:20;;;;;;;;;;;;;;;20.59;39.01;94731.41;10461668;28;2529;-64
2024/03/25 11:32:21;;;;;;;;;;;;;;;20.62;40.09;94720.31;10463492;28;2260;-64
2024/03/25 11:37:21;;;;;;;;;;;;;;;20.66;39.64;94705.47;10464186;28;2646;-69
2024/03/25 11:42:22;;;;;;;;;;;;;;;20.71;39.41;94704.56;10464021;28;2606;-67
2024/03/25 11:47:26;;;;;;;;;;;;;;;20.71;39.81;94696.66;10481802;28;2388;-68
2024/03/25 11:52:30;;;;;;;;;;;;;;;20.77;39.86;94690.19;10450551;28;2575;-68
2024/03/25 11:57:30;;;;;;;;;;;;;;;20.76;39.49;94693.91;10433085;28;2608;-68
2024/03/25 12:02:30;;;;;;;;;;;;;;;20.76;39.20;94683.38;10449914;28;2792;-68
2024/03/25 12:07:30;;;;;;;;;;;;;;;20.78;39.54;94668.81;10470825;28;2627;-69
2024/03/25 12:12:32;;;;;;;;;;;;;;;20.81;39.28;94649.03;10456660;28;2400;-69
2024/03/25 12:17:33;;;;;;;;;;;;;;;20.81;39.93;94647.13;10461955;28;2610;-69
2024/03/25 12:22:34;;;;;;;;;;;;;;;20.81;38.93;94644.50;10456817;28;2548;-69
2024/03/25 12:27:38;;;;;;;;;;;;;;;20.85;39.42;94634.94;10451132;28;2565;-68
2024/03/25 12:32:39;;;;;;;;;;;;;;;20.86;39.34;94625.97;10467983;28;2559;-68
2024/03/25 12:37:40;;;;;;;;;;;;;;;20.86;39.57;94625.97;10468124;28;2621;-68
2024/03/25 12:42:40;;;;;;;;;;;;;;;20.88;39.94;94613.25;10463960;28;2520;-67
2024/03/25 12:47:40;;;;;;;;;;;;;;;20.90;39.46;94608.47;10500241;28;2548;-69
2024/03/25 12:52:41;;;;;;;;;;;;;;;20.91;39.52;94606.63;10463329;28;2486;-69
2024/03/25 12:57:41;;;;;;;;;;;;;;;20.95;40.66;94605.72;10469492;28;2599;-69
2024/03/25 13:02:42;;;;;;;;;;;;;;;20.95;41.32;94592.53;10467672;28;2550;-67
2024/03/25 13:07:42;;;;;;;;;;;;;;;20.97;40.89;94574.56;10483030;28;2643;-67
2024/03/25 13:12:42;;;;;;;;;;;;;;;20.99;40.66;94575.06;10466642;28;2492;-68
2024/03/25 13:17:42;;;;;;;;;;;;;;;21.01;40.76;94558.94;10467061;28;2521;-68
2024/03/25 13:22:44;;;;;;;;;;;;;;;20.98;41.68;94552.41;10504451;27;2570;-68
2024/03/25 13:27:47;;;;;;;;;;;;;;;20.98;40.31;94544.50;10467989;28;2356;-68
2024/03/25 13:32:47;;;;;;;;;;;;;;;20.96;41.70;94536.13;10465899;28;2673;-68
2024/03/25 13:37:47;;;;;;;;;;;;;;;20.99;40.97;94526.84;10461180;28;2607;-67
2024/03/25 13:42:47;;;;;;;;;;;;;;;21.01;41.46;94522.84;10465358;28;2564;-69
2024/03/25 13:47:48;;;;;;;;;;;;;;;21.00;41.05;94505.47;10463820;28;2596;-67
2024/03/25 13:52:48;;;;;;;;;;;;;;;20.99;40.97;94498.66;10464428;28;2601;-67
2024/03/25 13:57:49;;;;;;;;;;;;;;;20.99;41.30;94488.13;10463618;28;2577;-67
2024/03/25 14:02:49;;;;;;;;;;;;;;;20.96;41.43;94493.97;10497046;28;2561;-68
2024/03/25 14:07:49;;;;;;;;;;;;;;;20.92;41.25;94486.97;10459886;28;2564;-68
2024/03/25 14:12:50;;;;;;;;;;;;;;;20.93;40.18;94476.16;10462738;28;2650;-67
2024/03/25 14:17:50;;;;;;;;;;;;;;;20.88;40.60;94464.97;10462068;28;2706;-68
2024/03/25 14:22:50;;;;;;;;;;;;;;;20.87;40.26;94451.06;10463802;28;2569;-67
2024/03/25 14:27:50;;;;;;;;;;;;;;;20.85;40.89;94442.69;10456119;28;2517;-67
2024/03/25 14:32:51;;;;;;;;;;;;;;;20.82;41.90;94438.00;10490275;28;2547;-67
2024/03/25 14:37:51;;;;;;;;;;;;;;;20.81;41.15;94440.97;10458148;28;2551;-68
2024/03/25 14:42:51;;;;;;;;;;;;;;;20.81;41.09;94433.06;10458810;28;2536;-68
2024/03/25 14:47:51;;;;;;;;;;;;;;;20.79;42.31;94427.31;10460264;28;2529;-66
2024/03/25 14:52:52;;;;;;;;;;;;;;;20.78;42.66;94416.00;10465189;28;2080;-68
2024/03/25 14:57:53;;;;;;;;;;;;;;;20.80;42.30;94405.16;10457083;28;2705;-67
2024/03/25 15:02:53;;;;;;;;;;;;;;;20.83;41.93;94404.56;10459986;28;2572;-67
2024/03/25 15:07:53;;;;;;;;;;;;;;;20.87;41.66;94389.69;10461313;28;2664;-67
2024/03/25 15:12:54;;;;;;;;;;;;;;;20.85;42.18;94387.38;10453329;28;2620;-66
2024/03/25 15:17:54;;;;;;;;;;;;;;;20.90;41.86;94379.31;10455174;28;2638;-68
2024/03/25 15:22:54;;;;;;;;;;;;;;;20.94;41.78;94361.81;10489641;28;2593;-68
2024/03/25 15:27:54;;;;;;;;;;;;;;;20.98;41.82;94365.38;10460164;28;2588;-69
2024/03/25 15:32:55;;;;;;;;;;;;;;;20.98;41.59;94369.84;10457109;28;2534;-66
2024/03/25 15:37:55;;;;;;;;;;;;;;;20.99;41.34;94351.13;10461876;28;2625;-66
2024/03/25 15:42:55;;;;;;;;;;;;;;;20.98;41.53;94349.56;10453990;28;2549;-65
2024/03/25 15:47:56;;;;;;;;;;;;;;;21.01;41.52;94335.00;10457417;28;2498;-65
2024/03/25 15:52:56;;;;;;;;;;;;;;;21.00;41.89;94342.13;10456257;28;2568;-65
2024/03/25 15:58:00;;;;;;;;;;;;;;;20.98;41.77;94332.97;10489744;28;2484;-66
2024/03/25 16:03:00;;;;;;;;;;;;;;;21.03;41.56;94324.97;10457049;28;2519;-66
2024/03/25 16:08:01;;;;;;;;;;;;;;;21.04;41.02;94314.09;10456852;28;2560;-64
2024/03/25 16:13:04;;;;;;;;;;;;;;;21.02;41.18;94313.63;10455500;28;2532;-66
2024/03/25 16:18:04;;;;;;;;;;;;;;;21.04;41.17;94308.84;10453884;28;2487;-67
2024/03/25 16:23:04;;;;;;;;;;;;;;;21.03;40.84;94291.50;10472450;28;2689;-67
2024/03/25 16:28:05;;;;;;;;;;;;;;;21.04;40.59;94285.13;10457349;28;2707;-67
2024/03/25 16:33:05;;;;;;;;;;;;;;;21.02;40.30;94286.50;10462017;28;2583;-67
2024/03/25 16:38:05;;;;;;;;;;;;;;;21.00;40.68;94283.38;10454779;28;2543;-67
2024/03/25 16:43:08;;;;;;;;;;;;;;;20.99;41.42;94274.72;10456182;28;2576;-67
2024/03/25 16:48:11;;;;;;;;;;;;;;;20.99;39.95;94266.81;10454430;28;2653;-67
2024/03/25 16:53:13;;;;;;;;;;;;;;;21.00;40.04;94257.03;10457297;28;2579;-67
2024/03/25 16:58:13;;;;;;;;;;;;;;;20.95;40.62;94258.00;10458571;28;2612;-66
2024/03/25 17:03:14;;;;;;;;;;;;;;;20.96;42.19;94248.22;10457318;28;2539;-65
2024/03/25 17:08:14;;;;;;;;;;;;;;;20.89;42.19;94251.34;10451054;28;2470;-65
2024/03/25 17:13:19;;;;;;;;;;;;;;;20.86;42.99;94257.22;10461747;28;2750;-65
2024/03/25 17:18:19;;;;;;;;;;;;;;;20.88;41.50;94252.41;10460770;28;2588;-66
2024/03/25 17:23:19;;;;;;;;;;;;;;;20.86;41.27;94253.81;10459438;28;2367;-66
2024/03/25 17:28:20;;;;;;;;;;;;;;;20.86;40.50;94249.31;10461085;28;2761;-69
2024/03/25 17:33:20;;;;;;;;;;;;;;;20.84;40.90;94243.59;10493727;28;2529;-70
2024/03/25 17:38:20;;;;;;;;;;;;;;;20.85;40.55;94247.78;10476094;28;2577;-68
2024/03/25 17:43:21;;;;;;;;;;;;;;;20.85;40.46;94237.25;10465817;28;2641;-66
2024/03/25 17:48:24;;;;;;;;;;;;;;;20.87;40.50;94235.06;10467451;28;2600;-68
2024/03/25 17:53:25;;;;;;;;;;;;;;;20.88;40.36;94231.34;10448457;28;2793;-68
2024/03/25 17:58:25;;;;;;;;;;;;;;;20.94;40.21;94224.81;10447801;28;2498;-68
2024/03/25 18:03:26;;;;;;;;;;;;;;;20.97;40.19;94231.34;10458794;28;2572;-69
2024/03/25 18:08:26;;;;;;;;;;;;;;;20.99;40.05;94234.44;10459947;28;2481;-67
2024/03/25 18:13:26;;;;;;;;;;;;;;;21.01;39.45;94225.13;10460820;28;2626;-67
2024/03/25 18:18:27;;;;;;;;;;;;;;;21.04;39.79;94221.91;10460153;28;2578;-68
2024/03/25 18:23:27;;;;;;;;;;;;;;;21.10;39.39;94227.00;10452802;28;2759;-69
2024/03/25 18:28:27;;;;;;;;;;;;;;;21.09;39.00;94228.88;10461369;28;2811;-67
2024/03/25 18:33:27;;;;;;;;;;;;;;;21.13;39.16;94226.38;10474326;28;2871;-66
2024/03/25 18:38:28;;;;;;;;;;;;;;;21.12;39.14;94225.63;10460409;28;2922;-64
2024/03/25 18:43:28;;;;;;;;;;;;;;;21.19;38.76;94225.13;10458541;28;2451;-68
2024/03/25 18:48:28;;;;;;;;;;;;;;;21.27;39.14;94219.84;10460991;28;2985;-71
2024/03/25 18:53:29;;;;;;;;;;;;;;;21.22;39.33;94216.59;10454902;28;2804;-70
2024/03/25 18:58:29;;;;;;;;;;;;;;;21.26;39.19;94217.53;10456414;28;2928;-70
2024/03/25 19:03:29;;;;;;;;;;;;;;;21.27;39.71;94205.91;10487473;28;2837;-69
2024/03/25 19:08:29;;;;;;;;;;;;;;;21.30;39.93;94203.41;10436970;28;2795;-69
2024/03/25 19:13:30;;;;;;;;;;;;;;;21.31;39.85;94188.38;10456332;28;2905;-68
2024/03/25 19:18:30;;;;;;;;;;;;;;;21.30;39.57;94178.91;10454141;28;2582;-68
2024/03/25 19:23:32;;;;;;;;;;;;;;;21.30;39.41;94176.25;10441414;28;2717;-67
2024/03/25 19:28:33;;;;;;;;;;;;;;;21.30;39.80;94173.63;10458481;28;2591;-67
2024/03/25 19:33:33;;;;;;;;;;;;;;;21.30;39.40;94171.00;10460958;28;2843;-67
2024/03/25 19:38:33;;;;;;;;;;;;;;;21.31;39.22;94172.56;10454543;28;2778;-67
2024/03/25 19:43:34;;;;;;;;;;;;;;;21.29;39.41;94162.31;10449707;28;2754;-69
2024/03/25 19:48:34;;;;;;;;;;;;;;;21.28;39.71;94160.00;10447661;28;2697;-70
2024/03/25 19:53:35;;;;;;;;;;;;;;;21.28;39.13;94165.28;10456015;28;2845;-68
2024/03/25 19:58:35;;;;;;;;;;;;;;;21.29;38.94;94158.91;10459035;28;2918;-67
2024/03/25 20:03:38;;;;;;;;;;;;;;;21.30;38.85;94155.19;10458080;28;2773;-67
2024/03/25 20:08:40;;;;;;;;;;;;;;;21.26;39.83;94160.31;10455476;28;2766;-66
2024/03/25 20:13:41;;;;;;;;;;;;;;;21.32;38.71;94150.38;10470741;28;2741;-70
2024/03/25 20:18:45;;;;;;;;;;;;;;;21.31;39.16;94152.22;10454867;28;2731;-68
2024/03/25 20:23:46;;;;;;;;;;;;;;;21.32;39.24;94159.06;10433980;28;2646;-69
2024/03/25 20:28:46;;;;;;;;;;;;;;;21.29;38.88;94156.28;10453912;28;2679;-70
2024/03/25 20:33:46;;;;;;;;;;;;;;;21.29;38.81;94143.09;10455841;28;2732;-70
2024/03/25 20:38:46;;;;;;;;;;;;;;;21.27;38.90;94137.38;10488536;28;2813;-71
2024/03/25 20:43:47;;;;;;;;;;;;;;;21.26;38.52;94133.19;10454413;28;2731;-72
2024/03/25 20:48:47;;;;;;;;;;;;;;;21.24;38.47;94135.38;10494799;28;2867;-72
2024/03/25 20:53:48;;;;;;;;;;;;;;;21.22;38.75;94122.50;10468131;28;2818;-71
2024/03/25 20:58:48;;;;;;;;;;;;;;;21.22;38.76;94121.72;10463408;28;2736;-72
2024/03/25 21:03:48;;;;;;;;;;;;;;;21.19;38.50;94122.34;10447230;28;2708;-73
2024/03/25 21:08:49;;;;;;;;;;;;;;;21.19;38.01;94117.09;10465379;28;2323;-71
2024/03/25 21:13:49;;;;;;;;;;;;;;;21.12;38.46;94114.97;10490300;27;2553;-70
2024/03/25 21:18:49;;;;;;;;;;;;;;;21.06;38.82;94109.06;10495607;27;2707;-70
2024/03/25 21:23:50;;;;;;;;;;;;;;;21.01;37.97;94105.81;10467522;28;2537;-70
2024/03/25 21:28:50;;;;;;;;;;;;;;;20.99;37.94;94100.09;10467676;28;2584;-67
2024/03/25 21:33:51;;;;;;;;;;;;;;;20.91;37.34;94096.41;10467612;28;2634;-67
2024/03/25 21:38:52;;;;;;;;;;;;;;;20.88;37.70;94096.25;10445959;28;2620;-67
2024/03/25 21:43:52;;;;;;;;;;;;;;;20.81;37.79;94073.00;10469891;28;2313;-68
2024/03/25 21:48:52;;;;;;;;;;;;;;;20.77;37.69;94080.00;10468611;28;2593;-67
2024/03/25 21:53:52;;;;;;;;;;;;;;;20.73;38.40;94073.06;10466850;28;2591;-67
2024/03/25 21:58:53;;;;;;;;;;;;;;;20.69;37.83;94070.25;10482546;28;2599;-67
2024/03/25 22:03:53;;;;;;;;;;;;;;;20.64;37.80;94065.19;10460683;28;2572;-67
2024/03/25 22:08:53;;;;;;;;;;;;;;;20.60;36.84;94053.75;10461503;28;2597;-67
2024/03/25 22:13:54;;;;;;;;;;;;;;;20.57;38.04;94056.97;10463745;28;2490;-67
2024/03/25 22:18:56;;;;;;;;;;;;;;;20.55;37.31;94037.31;10444448;28;2548;-67
2024/03/25 22:23:56;;;;;;;;;;;;;;;20.50;38.05;94032.25;10448893;28;2568;-67
2024/03/25 22:28:56;;;;;;;;;;;;;;;20.47;38.07;94033.63;10461660;28;2460;-67
2024/03/25 22:33:57;;;;;;;;;;;;;;;20.44;37.08;94029.00;10461556;28;2617;-67
2024/03/25 22:38:57;;;;;;;;;;;;;;;20.42;37.48;94015.38;10457017;28;2516;-67
2024/03/25 22:43:57;;;;;;;;;;;;;;;20.39;37.96;94013.38;10457057;28;2643;-68
2024/03/25 22:48:57;;;;;;;;;;;;;;;20.36;37.97;94005.34;10459970;28;2489;-68
2024/03/25 22:53:58;;;;;;;;;;;;;;;20.35;37.78;93999.28;10455942;28;2631;-67
2024/03/25 22:58:58;;;;;;;;;;;;;;;20.30;37.52;93994.19;10456303;28;2606;-67
2024/03/25 23:03:59;;;;;;;;;;;;;;;20.30;38.30;93985.53;10455753;28;2577;-67
2024/03/25 23:08:59;;;;;;;;;;;;;;;20.28;38.61;93975.31;10456734;28;2528;-68
2024/03/25 23:13:59;;;;;;;;;;;;;;;20.27;37.62;93977.19;10457327;28;2676;-68
2024/03/25 23:19:00;;;;;;;;;;;;;;;20.23;37.22;93967.59;10456374;28;2754;-68
2024/03/25 23:24:00;;;;;;;;;;;;;;;20.20;38.73;93966.38;10454615;28;2560;-68
2024/03/25 23:29:00;;;;;;;;;;;;;;;20.18;37.94;93962.47;10485490;28;2584;-68
2024/03/25 23:34:00;;;;;;;;;;;;;;;20.15;37.89;93950.69;10474380;28;2493;-68
2024/03/25 23:39:03;;;;;;;;;;;;;;;20.13;37.25;93960.75;10459294;28;2680;-68
2024/03/25 23:44:03;;;;;;;;;;;;;;;20.12;37.35;93953.19;10455647;28;2643;-67
2024/03/25 23:49:03;;;;;;;;;;;;;;;20.09;38.64;93951.22;10441603;28;2474;-69
2024/03/25 23:54:04;;;;;;;;;;;;;;;20.08;37.58;93939.91;10453419;28;2525;-68
2024/03/25 23:59:04;;;;;;;;;;;;;;;20.07;37.58;93935.72;10455752;28;2488;-68
